VOE246 LEIB-EGJJ
Flight info
| Callsign | VOE246 |
|---|---|
| Flight time | 1h 38m |
| Altitude | 36000 |
| Route | EPAMA DCT UMURE DCT GIROM DCT AGN DCT SECHE DCT UVELI DCT CNA DCT MANAK UT183 TIRAV UT501 USODA T501 EKRAS T496 BEVAV |
| Aircraft | B712/M-SDFGHRWY/C |
Departure
| Time | 2026-05-05 20:14 |
|---|---|
| Airport | Ibiza Airport (LEIB) |
Arrival
| Time | 2026-05-05 21:52 |
|---|---|
| Airport | Jersey Airport (EGJJ) |
| Time | Latitude | Longitude | Altitude | Speed | Heading |
|---|---|---|---|---|---|
| 2026-05-05 19:54 | 38.87459 | 1.36694 | 29 ft | 0 kts | 332° |
| 2026-05-05 19:57 | 38.87449 | 1.36701 | 29 ft | 3 kts | 332° |
| 2026-05-05 19:57 | 38.87434 | 1.36710 | 29 ft | 2 kts | 335° |
| 2026-05-05 19:58 | 38.87418 | 1.36715 | 29 ft | 3 kts | 12° |
| 2026-05-05 19:58 | 38.87403 | 1.36704 | 29 ft | 3 kts | 48° |
| 2026-05-05 19:58 | 38.87392 | 1.36684 | 29 ft | 2 kts | 62° |
| 2026-05-05 19:58 | 38.87385 | 1.36667 | 29 ft | 2 kts | 62° |
| 2026-05-05 19:59 | 38.87383 | 1.36663 | 29 ft | 0 kts | 62° |
| 2026-05-05 20:00 | 38.87384 | 1.36663 | 29 ft | 0 kts | 62° |
| 2026-05-05 20:04 | 38.87384 | 1.36664 | 29 ft | 0 kts | 62° |
| 2026-05-05 20:04 | 38.87384 | 1.36665 | 29 ft | 0 kts | 62° |
| 2026-05-05 20:06 | 38.87385 | 1.36666 | 29 ft | 0 kts | 62° |
| 2026-05-05 20:07 | 38.87385 | 1.36667 | 29 ft | 0 kts | 62° |
| 2026-05-05 20:07 | 38.87389 | 1.36676 | 29 ft | 7 kts | 62° |
| 2026-05-05 20:08 | 38.87416 | 1.36756 | 29 ft | 6 kts | 105° |
| 2026-05-05 20:08 | 38.87373 | 1.36805 | 29 ft | 15 kts | 151° |
| 2026-05-05 20:08 | 38.87301 | 1.36870 | 29 ft | 8 kts | 104° |
| 2026-05-05 20:08 | 38.87313 | 1.36928 | 29 ft | 7 kts | 65° |
| 2026-05-05 20:09 | 38.87335 | 1.36985 | 29 ft | 8 kts | 62° |
| 2026-05-05 20:09 | 38.87369 | 1.37066 | 29 ft | 14 kts | 62° |
| 2026-05-05 20:09 | 38.87431 | 1.37213 | 29 ft | 23 kts | 61° |
| 2026-05-05 20:09 | 38.87507 | 1.37399 | 29 ft | 21 kts | 61° |
| 2026-05-05 20:10 | 38.87580 | 1.37578 | 29 ft | 24 kts | 61° |
| 2026-05-05 20:10 | 38.87663 | 1.37778 | 29 ft | 25 kts | 62° |
| 2026-05-05 20:10 | 38.87733 | 1.37946 | 29 ft | 19 kts | 62° |
| 2026-05-05 20:10 | 38.87772 | 1.38040 | 29 ft | 18 kts | 62° |
| 2026-05-05 20:11 | 38.87848 | 1.38224 | 29 ft | 17 kts | 62° |
| 2026-05-05 20:11 | 38.87905 | 1.38364 | 29 ft | 18 kts | 62° |
| 2026-05-05 20:11 | 38.87965 | 1.38511 | 29 ft | 18 kts | 62° |
| 2026-05-05 20:11 | 38.88002 | 1.38619 | 29 ft | 7 kts | 97° |
| 2026-05-05 20:12 | 38.87987 | 1.38647 | 29 ft | 6 kts | 149° |
| 2026-05-05 20:12 | 38.87952 | 1.38669 | 29 ft | 7 kts | 153° |
| 2026-05-05 20:12 | 38.87889 | 1.38695 | 29 ft | 12 kts | 175° |
| 2026-05-05 20:12 | 38.87842 | 1.38656 | 29 ft | 6 kts | 244° |
| 2026-05-05 20:13 | 38.87832 | 1.38630 | 29 ft | 3 kts | 243° |
| 2026-05-05 20:13 | 38.87748 | 1.38426 | 29 ft | 54 kts | 241° |
| 2026-05-05 20:13 | 38.87463 | 1.37736 | 29 ft | 119 kts | 242° |
| 2026-05-05 20:13 | 38.86992 | 1.36633 | 230 ft | 153 kts | 240° |
| 2026-05-05 20:14 | 38.86451 | 1.35450 | 968 ft | 155 kts | 241° |
| 2026-05-05 20:14 | 38.85948 | 1.34193 | 1659 ft | 162 kts | 244° |
| 2026-05-05 20:14 | 38.85461 | 1.32855 | 2162 ft | 172 kts | 244° |
| 2026-05-05 20:14 | 38.84908 | 1.31351 | 2372 ft | 199 kts | 244° |
| 2026-05-05 20:15 | 38.84263 | 1.29623 | 2685 ft | 223 kts | 244° |
| 2026-05-05 20:15 | 38.83657 | 1.27831 | 3721 ft | 217 kts | 255° |
| 2026-05-05 20:15 | 38.83668 | 1.25931 | 4707 ft | 216 kts | 283° |
| 2026-05-05 20:15 | 38.84320 | 1.24203 | 5629 ft | 219 kts | 305° |
| 2026-05-05 20:16 | 38.85378 | 1.22787 | 6547 ft | 222 kts | 316° |
| 2026-05-05 20:16 | 38.86588 | 1.21525 | 7385 ft | 229 kts | 320° |
| 2026-05-05 20:16 | 38.87917 | 1.20251 | 7969 ft | 246 kts | 321° |
| 2026-05-05 20:16 | 38.89315 | 1.18951 | 8819 ft | 251 kts | 321° |
| 2026-05-05 20:17 | 38.90758 | 1.17650 | 9701 ft | 256 kts | 324° |
| 2026-05-05 20:17 | 38.92386 | 1.16670 | 10589 ft | 264 kts | 339° |
| 2026-05-05 20:17 | 38.94239 | 1.16370 | 11378 ft | 279 kts | 357° |
| 2026-05-05 20:17 | 38.96242 | 1.16715 | 11821 ft | 305 kts | 7° |
| 2026-05-05 20:18 | 38.98409 | 1.17381 | 11997 ft | 335 kts | 10° |
| 2026-05-05 20:18 | 39.00768 | 1.18173 | 12043 ft | 366 kts | 11° |
| 2026-05-05 20:18 | 39.03322 | 1.19030 | 12046 ft | 393 kts | 11° |
| 2026-05-05 20:18 | 39.06031 | 1.19931 | 12043 ft | 410 kts | 11° |
| 2026-05-05 20:19 | 39.08847 | 1.20867 | 12162 ft | 418 kts | 11° |
| 2026-05-05 20:19 | 39.11668 | 1.21803 | 12798 ft | 421 kts | 11° |
| 2026-05-05 20:19 | 39.14517 | 1.22748 | 13356 ft | 425 kts | 11° |
| 2026-05-05 20:19 | 39.17388 | 1.23700 | 13908 ft | 429 kts | 11° |
| 2026-05-05 20:20 | 39.20261 | 1.24653 | 14427 ft | 434 kts | 10° |
| 2026-05-05 20:20 | 39.23224 | 1.25637 | 14978 ft | 438 kts | 10° |
| 2026-05-05 20:20 | 39.26150 | 1.26614 | 16068 ft | 416 kts | 10° |
| 2026-05-05 20:20 | 39.28823 | 1.27519 | 18118 ft | 380 kts | 8° |
| 2026-05-05 20:21 | 39.31318 | 1.28353 | 19543 ft | 367 kts | 7° |
| 2026-05-05 20:21 | 39.33801 | 1.29168 | 20291 ft | 371 kts | 7° |
| 2026-05-05 20:21 | 39.36348 | 1.30003 | 20629 ft | 388 kts | 7° |
| 2026-05-05 20:21 | 39.39034 | 1.30890 | 20782 ft | 407 kts | 8° |
| 2026-05-05 20:22 | 39.41797 | 1.31818 | 21283 ft | 414 kts | 8° |
| 2026-05-05 20:22 | 39.44605 | 1.32762 | 21811 ft | 421 kts | 7° |
| 2026-05-05 20:22 | 39.47448 | 1.33716 | 22378 ft | 425 kts | 7° |
| 2026-05-05 20:22 | 39.50322 | 1.34679 | 22939 ft | 429 kts | 7° |
| 2026-05-05 20:23 | 39.53213 | 1.35648 | 23521 ft | 432 kts | 7° |
| 2026-05-05 20:23 | 39.56177 | 1.36642 | 24051 ft | 437 kts | 7° |
| 2026-05-05 20:23 | 39.59135 | 1.37531 | 24583 ft | 435 kts | 1° |
| 2026-05-05 20:23 | 39.62115 | 1.37794 | 25081 ft | 427 kts | 349° |
| 2026-05-05 20:24 | 39.65065 | 1.37496 | 25547 ft | 426 kts | 345° |
| 2026-05-05 20:24 | 39.68023 | 1.37051 | 26024 ft | 430 kts | 345° |
| 2026-05-05 20:24 | 39.70997 | 1.36624 | 26518 ft | 433 kts | 345° |
| 2026-05-05 20:24 | 39.73998 | 1.36219 | 26988 ft | 436 kts | 345° |
| 2026-05-05 20:25 | 39.77019 | 1.35819 | 27440 ft | 439 kts | 345° |
| 2026-05-05 20:25 | 39.80072 | 1.35415 | 27887 ft | 442 kts | 345° |
| 2026-05-05 20:25 | 39.83135 | 1.35008 | 28316 ft | 445 kts | 345° |
| 2026-05-05 20:25 | 39.86227 | 1.34595 | 28680 ft | 449 kts | 345° |
| 2026-05-05 20:26 | 39.89334 | 1.34181 | 29093 ft | 451 kts | 345° |
| 2026-05-05 20:26 | 39.92462 | 1.33764 | 29485 ft | 454 kts | 345° |
| 2026-05-05 20:26 | 39.95605 | 1.33344 | 29868 ft | 457 kts | 345° |
| 2026-05-05 20:26 | 39.98775 | 1.32920 | 30237 ft | 459 kts | 345° |
| 2026-05-05 20:27 | 40.01993 | 1.32489 | 30569 ft | 462 kts | 345° |
| 2026-05-05 20:27 | 40.05200 | 1.32059 | 30902 ft | 465 kts | 345° |
| 2026-05-05 20:27 | 40.08420 | 1.31628 | 31244 ft | 467 kts | 345° |
| 2026-05-05 20:27 | 40.11662 | 1.31193 | 31576 ft | 469 kts | 345° |
| 2026-05-05 20:28 | 40.14910 | 1.30757 | 31889 ft | 472 kts | 345° |
| 2026-05-05 20:28 | 40.18173 | 1.30318 | 32193 ft | 474 kts | 345° |
| 2026-05-05 20:28 | 40.21463 | 1.29874 | 32402 ft | 478 kts | 345° |
| 2026-05-05 20:28 | 40.24770 | 1.29429 | 32721 ft | 479 kts | 345° |
| 2026-05-05 20:29 | 40.28085 | 1.28984 | 33084 ft | 479 kts | 345° |
| 2026-05-05 20:29 | 40.31394 | 1.28538 | 33452 ft | 479 kts | 345° |
| 2026-05-05 20:29 | 40.34698 | 1.28092 | 33838 ft | 478 kts | 345° |
| 2026-05-05 20:29 | 40.38001 | 1.27645 | 34224 ft | 477 kts | 345° |
| 2026-05-05 20:30 | 40.41338 | 1.27193 | 34606 ft | 477 kts | 345° |
| 2026-05-05 20:30 | 40.44630 | 1.26746 | 34974 ft | 476 kts | 345° |
| 2026-05-05 20:30 | 40.47923 | 1.26300 | 35329 ft | 476 kts | 345° |
| 2026-05-05 20:30 | 40.51205 | 1.25854 | 35684 ft | 475 kts | 346° |
| 2026-05-05 20:31 | 40.54492 | 1.25406 | 35909 ft | 476 kts | 346° |
| 2026-05-05 20:31 | 40.61057 | 1.24515 | 36014 ft | 473 kts | 346° |
| 2026-05-05 20:32 | 40.67582 | 1.23624 | 36027 ft | 472 kts | 346° |
| 2026-05-05 20:32 | 40.74101 | 1.22732 | 36030 ft | 472 kts | 346° |
| 2026-05-05 20:33 | 40.80622 | 1.21839 | 36030 ft | 472 kts | 346° |
| 2026-05-05 20:33 | 40.87188 | 1.20938 | 36030 ft | 472 kts | 346° |
| 2026-05-05 20:34 | 40.93698 | 1.20043 | 36031 ft | 472 kts | 346° |
| 2026-05-05 20:34 | 41.00159 | 1.18811 | 36031 ft | 465 kts | 339° |
| 2026-05-05 20:35 | 41.06379 | 1.16694 | 36031 ft | 461 kts | 336° |
| 2026-05-05 20:35 | 41.12505 | 1.14294 | 36031 ft | 460 kts | 335° |
| 2026-05-05 20:36 | 41.18610 | 1.11810 | 36031 ft | 459 kts | 334° |
| 2026-05-05 20:36 | 41.24706 | 1.09294 | 36031 ft | 459 kts | 334° |
| 2026-05-05 20:37 | 41.30833 | 1.06744 | 36031 ft | 459 kts | 334° |
| 2026-05-05 20:37 | 41.36924 | 1.04195 | 36031 ft | 459 kts | 334° |
| 2026-05-05 20:38 | 41.43010 | 1.01630 | 36033 ft | 459 kts | 334° |
| 2026-05-05 20:38 | 41.49074 | 0.98989 | 36034 ft | 457 kts | 332° |
| 2026-05-05 20:39 | 41.54980 | 0.95957 | 36034 ft | 455 kts | 330° |
| 2026-05-05 20:39 | 41.60825 | 0.92755 | 36034 ft | 454 kts | 329° |
| 2026-05-05 20:40 | 41.66684 | 0.89477 | 36035 ft | 454 kts | 329° |
| 2026-05-05 20:40 | 41.72495 | 0.86193 | 36039 ft | 454 kts | 329° |
| 2026-05-05 20:41 | 41.78494 | 0.83389 | 36044 ft | 464 kts | 339° |
| 2026-05-05 20:41 | 41.84847 | 0.81671 | 36049 ft | 468 kts | 343° |
| 2026-05-05 20:42 | 41.91270 | 0.80254 | 36052 ft | 469 kts | 344° |
| 2026-05-05 20:42 | 41.97705 | 0.78915 | 36053 ft | 468 kts | 344° |
| 2026-05-05 20:43 | 42.04171 | 0.77750 | 36055 ft | 472 kts | 348° |
| 2026-05-05 20:43 | 42.10753 | 0.76900 | 36056 ft | 472 kts | 349° |
| 2026-05-05 20:44 | 42.17302 | 0.76144 | 36050 ft | 473 kts | 349° |
| 2026-05-05 20:44 | 42.23863 | 0.75408 | 36113 ft | 475 kts | 349° |
| 2026-05-05 20:45 | 42.33692 | 0.74305 | 36062 ft | 474 kts | 349° |
| 2026-05-05 20:45 | 42.40295 | 0.73557 | 36064 ft | 474 kts | 349° |
| 2026-05-05 20:46 | 42.46850 | 0.72820 | 36065 ft | 474 kts | 350° |
| 2026-05-05 20:46 | 42.53418 | 0.72144 | 36067 ft | 474 kts | 350° |
| 2026-05-05 20:47 | 42.59975 | 0.71443 | 36090 ft | 473 kts | 350° |
| 2026-05-05 20:47 | 42.66544 | 0.70763 | 36082 ft | 475 kts | 350° |
| 2026-05-05 20:48 | 42.73110 | 0.70071 | 36072 ft | 474 kts | 350° |
| 2026-05-05 20:48 | 42.79672 | 0.69376 | 36073 ft | 474 kts | 350° |
| 2026-05-05 20:49 | 42.86276 | 0.68676 | 36074 ft | 474 kts | 350° |
| 2026-05-05 20:49 | 42.92828 | 0.67980 | 36088 ft | 474 kts | 350° |
| 2026-05-05 20:50 | 42.99408 | 0.67279 | 36093 ft | 474 kts | 351° |
| 2026-05-05 20:50 | 43.05978 | 0.66578 | 36094 ft | 475 kts | 351° |
| 2026-05-05 20:51 | 43.12545 | 0.65876 | 36095 ft | 474 kts | 351° |
| 2026-05-05 20:51 | 43.19118 | 0.65172 | 36094 ft | 475 kts | 351° |
| 2026-05-05 20:52 | 43.25737 | 0.64461 | 36093 ft | 474 kts | 351° |
| 2026-05-05 20:52 | 43.32304 | 0.63755 | 36091 ft | 474 kts | 351° |
| 2026-05-05 20:53 | 43.38863 | 0.63047 | 36089 ft | 474 kts | 351° |
| 2026-05-05 20:53 | 43.45432 | 0.62337 | 36086 ft | 474 kts | 351° |
| 2026-05-05 20:54 | 43.52000 | 0.61626 | 36084 ft | 474 kts | 351° |
| 2026-05-05 20:54 | 43.58571 | 0.60912 | 36081 ft | 474 kts | 351° |
| 2026-05-05 20:55 | 43.65135 | 0.60198 | 36078 ft | 474 kts | 352° |
| 2026-05-05 20:55 | 43.71739 | 0.59478 | 36075 ft | 473 kts | 352° |
| 2026-05-05 20:56 | 43.78297 | 0.58761 | 36071 ft | 474 kts | 352° |
| 2026-05-05 20:56 | 43.84863 | 0.58042 | 36039 ft | 474 kts | 352° |
| 2026-05-05 20:57 | 43.91420 | 0.57323 | 35983 ft | 473 kts | 352° |
| 2026-05-05 20:57 | 43.97981 | 0.56601 | 35975 ft | 474 kts | 352° |
| 2026-05-05 20:58 | 44.04538 | 0.55878 | 35972 ft | 473 kts | 352° |
| 2026-05-05 20:58 | 44.11128 | 0.55150 | 35971 ft | 473 kts | 352° |
| 2026-05-05 20:59 | 44.17677 | 0.54425 | 35971 ft | 473 kts | 352° |
| 2026-05-05 20:59 | 44.24227 | 0.53698 | 35970 ft | 473 kts | 352° |
| 2026-05-05 21:00 | 44.30779 | 0.52969 | 35971 ft | 473 kts | 352° |
| 2026-05-05 21:00 | 44.37338 | 0.52238 | 35970 ft | 473 kts | 353° |
| 2026-05-05 21:01 | 44.43841 | 0.51109 | 35974 ft | 468 kts | 341° |
| 2026-05-05 21:01 | 44.49800 | 0.47658 | 35970 ft | 464 kts | 330° |
| 2026-05-05 21:02 | 44.55596 | 0.43721 | 35971 ft | 464 kts | 331° |
| 2026-05-05 21:02 | 44.61456 | 0.39824 | 35972 ft | 464 kts | 331° |
| 2026-05-05 21:03 | 44.67278 | 0.35944 | 35971 ft | 464 kts | 331° |
| 2026-05-05 21:03 | 44.73095 | 0.32057 | 35970 ft | 464 kts | 331° |
| 2026-05-05 21:04 | 44.78929 | 0.28150 | 35970 ft | 464 kts | 332° |
| 2026-05-05 21:04 | 44.84751 | 0.24242 | 35969 ft | 465 kts | 332° |
| 2026-05-05 21:05 | 44.90581 | 0.20321 | 35966 ft | 465 kts | 332° |
| 2026-05-05 21:05 | 44.95460 | 0.17031 | 35964 ft | 465 kts | 332° |
| 2026-05-05 21:06 | 45.01289 | 0.13095 | 35962 ft | 465 kts | 332° |
| 2026-05-05 21:06 | 45.07111 | 0.09154 | 35962 ft | 465 kts | 332° |
| 2026-05-05 21:07 | 45.12941 | 0.05198 | 35960 ft | 465 kts | 332° |
| 2026-05-05 21:07 | 45.18769 | 0.01236 | 35957 ft | 465 kts | 332° |
| 2026-05-05 21:08 | 45.24614 | -0.02748 | 35954 ft | 458 kts | 333° |
| 2026-05-05 21:08 | 45.30304 | -0.06633 | 35951 ft | 454 kts | 333° |
| 2026-05-05 21:09 | 45.36005 | -0.10537 | 35949 ft | 456 kts | 333° |
| 2026-05-05 21:09 | 45.41714 | -0.14453 | 35947 ft | 456 kts | 333° |
| 2026-05-05 21:10 | 45.47422 | -0.18378 | 35945 ft | 456 kts | 333° |
| 2026-05-05 21:10 | 45.53124 | -0.22308 | 35943 ft | 456 kts | 333° |
| 2026-05-05 21:11 | 45.58827 | -0.26246 | 35942 ft | 456 kts | 333° |
| 2026-05-05 21:11 | 45.64556 | -0.30260 | 35941 ft | 456 kts | 330° |
| 2026-05-05 21:12 | 45.69749 | -0.35390 | 35940 ft | 455 kts | 321° |
| 2026-05-05 21:12 | 45.74691 | -0.41022 | 35940 ft | 455 kts | 321° |
| 2026-05-05 21:13 | 45.79654 | -0.46633 | 35939 ft | 455 kts | 321° |
| 2026-05-05 21:13 | 45.84613 | -0.52246 | 35937 ft | 455 kts | 321° |
| 2026-05-05 21:14 | 45.89570 | -0.57872 | 35934 ft | 456 kts | 321° |
| 2026-05-05 21:14 | 45.94568 | -0.63556 | 35929 ft | 455 kts | 321° |
| 2026-05-05 21:15 | 45.99519 | -0.69201 | 35925 ft | 455 kts | 321° |
| 2026-05-05 21:15 | 46.04471 | -0.74861 | 35920 ft | 456 kts | 321° |
| 2026-05-05 21:16 | 46.09448 | -0.80562 | 35917 ft | 459 kts | 321° |
| 2026-05-05 21:16 | 46.14460 | -0.86316 | 35914 ft | 458 kts | 321° |
| 2026-05-05 21:17 | 46.19436 | -0.92041 | 35913 ft | 458 kts | 321° |
| 2026-05-05 21:17 | 46.24409 | -0.97780 | 35912 ft | 458 kts | 321° |
| 2026-05-05 21:18 | 46.29385 | -1.03534 | 35912 ft | 458 kts | 321° |
| 2026-05-05 21:18 | 46.34352 | -1.09290 | 35912 ft | 458 kts | 321° |
| 2026-05-05 21:19 | 46.39318 | -1.15059 | 35912 ft | 458 kts | 321° |
| 2026-05-05 21:19 | 46.44315 | -1.20877 | 35911 ft | 458 kts | 321° |
| 2026-05-05 21:20 | 46.49270 | -1.26661 | 35911 ft | 458 kts | 321° |
| 2026-05-05 21:20 | 46.54231 | -1.32465 | 35911 ft | 458 kts | 321° |
| 2026-05-05 21:21 | 46.59576 | -1.37423 | 35915 ft | 458 kts | 340° |
| 2026-05-05 21:21 | 46.62630 | -1.38654 | 35915 ft | 458 kts | 352° |
| 2026-05-05 21:21 | 46.65797 | -1.38893 | 35914 ft | 457 kts | 3° |
| 2026-05-05 21:22 | 46.72135 | -1.38297 | 35910 ft | 457 kts | 4° |
| 2026-05-05 21:22 | 46.78519 | -1.37828 | 35911 ft | 457 kts | 3° |
| 2026-05-05 21:23 | 46.84874 | -1.37393 | 35910 ft | 457 kts | 3° |
| 2026-05-05 21:23 | 46.91199 | -1.36953 | 35909 ft | 452 kts | 3° |
| 2026-05-05 21:24 | 46.95814 | -1.36643 | 35913 ft | 459 kts | 2° |
| 2026-05-05 21:24 | 46.96417 | -1.36620 | 35913 ft | 459 kts | 1° |
| 2026-05-05 21:25 | 47.02783 | -1.36844 | 35911 ft | 457 kts | 358° |
| 2026-05-05 21:25 | 47.02873 | -1.36850 | 35911 ft | 457 kts | 358° |
| 2026-05-05 21:26 | 47.06340 | -1.37074 | 35914 ft | 457 kts | 358° |
| 2026-05-05 21:27 | 47.12688 | -1.37478 | 35933 ft | 458 kts | 358° |
| 2026-05-05 21:27 | 47.19039 | -1.37836 | 35914 ft | 457 kts | 358° |
| 2026-05-05 21:28 | 47.25386 | -1.38216 | 35914 ft | 458 kts | 358° |
| 2026-05-05 21:28 | 47.31738 | -1.38635 | 35914 ft | 457 kts | 358° |
| 2026-05-05 21:29 | 47.38126 | -1.39078 | 35914 ft | 458 kts | 358° |
| 2026-05-05 21:29 | 47.44482 | -1.39519 | 35915 ft | 457 kts | 358° |
| 2026-05-05 21:30 | 47.50829 | -1.39960 | 35916 ft | 458 kts | 358° |
| 2026-05-05 21:30 | 47.57239 | -1.40407 | 35631 ft | 463 kts | 358° |
| 2026-05-05 21:31 | 47.60458 | -1.40632 | 35003 ft | 464 kts | 358° |
| 2026-05-05 21:31 | 47.63658 | -1.40856 | 34521 ft | 458 kts | 359° |
| 2026-05-05 21:31 | 47.66860 | -1.41080 | 34025 ft | 453 kts | 359° |
| 2026-05-05 21:31 | 47.69994 | -1.41299 | 33541 ft | 450 kts | 359° |
| 2026-05-05 21:32 | 47.73114 | -1.41518 | 33060 ft | 450 kts | 359° |
| 2026-05-05 21:32 | 47.76242 | -1.41736 | 32577 ft | 451 kts | 360° |
| 2026-05-05 21:32 | 47.79371 | -1.41955 | 32091 ft | 451 kts | 360° |
| 2026-05-05 21:32 | 47.82504 | -1.42179 | 31502 ft | 452 kts | 0° |
| 2026-05-05 21:33 | 47.85637 | -1.42403 | 30874 ft | 450 kts | 0° |
| 2026-05-05 21:33 | 47.88751 | -1.42625 | 30262 ft | 448 kts | 1° |
| 2026-05-05 21:33 | 47.91859 | -1.42846 | 29651 ft | 447 kts | 1° |
| 2026-05-05 21:33 | 47.94969 | -1.43066 | 29040 ft | 448 kts | 0° |
| 2026-05-05 21:34 | 47.98123 | -1.43290 | 28420 ft | 450 kts | 0° |
| 2026-05-05 21:34 | 48.01240 | -1.43512 | 27807 ft | 450 kts | 0° |
| 2026-05-05 21:34 | 48.04372 | -1.43736 | 27141 ft | 452 kts | 360° |
| 2026-05-05 21:34 | 48.07512 | -1.43962 | 26334 ft | 452 kts | 359° |
| 2026-05-05 21:35 | 48.10644 | -1.44186 | 25560 ft | 450 kts | 359° |
| 2026-05-05 21:35 | 48.13769 | -1.44410 | 24785 ft | 451 kts | 359° |
| 2026-05-05 21:35 | 48.16902 | -1.44634 | 23979 ft | 452 kts | 359° |
| 2026-05-05 21:35 | 48.20071 | -1.44861 | 23117 ft | 449 kts | 359° |
| 2026-05-05 21:36 | 48.23173 | -1.45084 | 22285 ft | 443 kts | 359° |
| 2026-05-05 21:36 | 48.26230 | -1.45304 | 21467 ft | 438 kts | 359° |
| 2026-05-05 21:36 | 48.29253 | -1.45521 | 20659 ft | 434 kts | 359° |
| 2026-05-05 21:36 | 48.32252 | -1.45736 | 19857 ft | 429 kts | 359° |
| 2026-05-05 21:37 | 48.35250 | -1.45951 | 19056 ft | 424 kts | 358° |
| 2026-05-05 21:37 | 48.38185 | -1.46160 | 18271 ft | 420 kts | 358° |
| 2026-05-05 21:37 | 48.41084 | -1.46372 | 17508 ft | 416 kts | 358° |
| 2026-05-05 21:37 | 48.43959 | -1.46583 | 16762 ft | 412 kts | 358° |
| 2026-05-05 21:38 | 48.46837 | -1.46793 | 16014 ft | 409 kts | 358° |
| 2026-05-05 21:38 | 48.49626 | -1.46996 | 15290 ft | 405 kts | 358° |
| 2026-05-05 21:38 | 48.52459 | -1.47203 | 14553 ft | 401 kts | 358° |
| 2026-05-05 21:38 | 48.55234 | -1.47405 | 13830 ft | 398 kts | 358° |
| 2026-05-05 21:39 | 48.57983 | -1.47606 | 13114 ft | 395 kts | 358° |
| 2026-05-05 21:39 | 48.60716 | -1.47806 | 12396 ft | 392 kts | 358° |
| 2026-05-05 21:39 | 48.63415 | -1.48004 | 11710 ft | 388 kts | 358° |
| 2026-05-05 21:39 | 48.66074 | -1.48199 | 11259 ft | 376 kts | 358° |
| 2026-05-05 21:40 | 48.68616 | -1.48386 | 11057 ft | 358 kts | 358° |
| 2026-05-05 21:40 | 48.71041 | -1.48564 | 10865 ft | 342 kts | 358° |
| 2026-05-05 21:40 | 48.73391 | -1.48736 | 10718 ft | 327 kts | 358° |
| 2026-05-05 21:40 | 48.75577 | -1.48896 | 10639 ft | 311 kts | 358° |
| 2026-05-05 21:41 | 48.77717 | -1.49053 | 10523 ft | 298 kts | 358° |
| 2026-05-05 21:41 | 48.79753 | -1.49203 | 10348 ft | 289 kts | 358° |
| 2026-05-05 21:41 | 48.81723 | -1.49347 | 10165 ft | 280 kts | 358° |
| 2026-05-05 21:41 | 48.83645 | -1.49489 | 9991 ft | 275 kts | 358° |
| 2026-05-05 21:42 | 48.85552 | -1.49628 | 9712 ft | 276 kts | 358° |
| 2026-05-05 21:42 | 48.87462 | -1.49775 | 9375 ft | 275 kts | 356° |
| 2026-05-05 21:42 | 48.89334 | -1.50262 | 9045 ft | 274 kts | 343° |
| 2026-05-05 21:42 | 48.91055 | -1.51475 | 8700 ft | 274 kts | 330° |
| 2026-05-05 21:43 | 48.92655 | -1.53063 | 8321 ft | 275 kts | 328° |
| 2026-05-05 21:43 | 48.94250 | -1.54678 | 7952 ft | 275 kts | 328° |
| 2026-05-05 21:43 | 48.95861 | -1.56295 | 7583 ft | 274 kts | 328° |
| 2026-05-05 21:43 | 48.97452 | -1.57891 | 7218 ft | 274 kts | 328° |
| 2026-05-05 21:44 | 48.99037 | -1.59485 | 6856 ft | 273 kts | 328° |
| 2026-05-05 21:44 | 49.00613 | -1.61075 | 6496 ft | 272 kts | 328° |
| 2026-05-05 21:44 | 49.02188 | -1.62667 | 6137 ft | 271 kts | 328° |
| 2026-05-05 21:44 | 49.03754 | -1.64252 | 5783 ft | 270 kts | 328° |
| 2026-05-05 21:45 | 49.05309 | -1.65833 | 5455 ft | 268 kts | 328° |
| 2026-05-05 21:45 | 49.06848 | -1.67407 | 5204 ft | 263 kts | 328° |
| 2026-05-05 21:45 | 49.08332 | -1.68938 | 5100 ft | 253 kts | 328° |
| 2026-05-05 21:45 | 49.09689 | -1.70620 | 4878 ft | 252 kts | 317° |
| 2026-05-05 21:46 | 49.10822 | -1.72688 | 4611 ft | 251 kts | 310° |
| 2026-05-05 21:46 | 49.11847 | -1.74832 | 4345 ft | 250 kts | 309° |
| 2026-05-05 21:46 | 49.12845 | -1.76999 | 4063 ft | 249 kts | 308° |
| 2026-05-05 21:46 | 49.13829 | -1.79164 | 3794 ft | 248 kts | 308° |
| 2026-05-05 21:47 | 49.14805 | -1.81326 | 3509 ft | 247 kts | 308° |
| 2026-05-05 21:47 | 49.15772 | -1.83486 | 3240 ft | 246 kts | 308° |
| 2026-05-05 21:47 | 49.16732 | -1.85643 | 2974 ft | 245 kts | 308° |
| 2026-05-05 21:47 | 49.17681 | -1.87788 | 2697 ft | 244 kts | 308° |
| 2026-05-05 21:48 | 49.18633 | -1.89931 | 2427 ft | 243 kts | 308° |
| 2026-05-05 21:48 | 49.19585 | -1.92056 | 2170 ft | 242 kts | 308° |
| 2026-05-05 21:48 | 49.20528 | -1.94141 | 2046 ft | 234 kts | 308° |
| 2026-05-05 21:48 | 49.21432 | -1.96134 | 2008 ft | 222 kts | 308° |
| 2026-05-05 21:49 | 49.21982 | -1.97457 | 1982 ft | 216 kts | 301° |
| 2026-05-05 21:49 | 49.22450 | -1.99535 | 2007 ft | 208 kts | 284° |
| 2026-05-05 21:49 | 49.22445 | -2.01730 | 2012 ft | 199 kts | 266° |
| 2026-05-05 21:49 | 49.22185 | -2.03644 | 1982 ft | 170 kts | 261° |
| 2026-05-05 21:50 | 49.21949 | -2.05368 | 1878 ft | 158 kts | 264° |
| 2026-05-05 21:50 | 49.21814 | -2.06960 | 1783 ft | 152 kts | 268° |
| 2026-05-05 21:50 | 49.21708 | -2.08483 | 1563 ft | 139 kts | 265° |
| 2026-05-05 21:50 | 49.21585 | -2.09965 | 1404 ft | 142 kts | 264° |
| 2026-05-05 21:51 | 49.21460 | -2.11443 | 1209 ft | 141 kts | 264° |
| 2026-05-05 21:51 | 49.21341 | -2.12933 | 985 ft | 144 kts | 265° |
| 2026-05-05 21:51 | 49.21221 | -2.14434 | 769 ft | 135 kts | 263° |
| 2026-05-05 21:51 | 49.21078 | -2.15884 | 621 ft | 139 kts | 264° |
| 2026-05-05 21:52 | 49.20855 | -2.18814 | 307 ft | 140 kts | 264° |
| 2026-05-05 21:52 | 49.20752 | -2.20082 | 286 ft | 92 kts | 263° |
| 2026-05-05 21:52 | 49.20699 | -2.20728 | 286 ft | 25 kts | 251° |
| 2026-05-05 21:53 | 49.20662 | -2.20756 | 286 ft | 17 kts | 175° |
| 2026-05-05 21:53 | 49.20615 | -2.20713 | 286 ft | 11 kts | 89° |
| 2026-05-05 21:53 | 49.20615 | -2.20554 | 286 ft | 14 kts | 94° |
| 2026-05-05 21:53 | 49.20602 | -2.20451 | 286 ft | 6 kts | 104° |
| 2026-05-05 21:54 | 49.20584 | -2.20349 | 286 ft | 11 kts | 106° |
| 2026-05-05 21:54 | 49.20565 | -2.20254 | 286 ft | 9 kts | 107° |
| 2026-05-05 21:54 | 49.20546 | -2.20159 | 286 ft | 10 kts | 107° |
| 2026-05-05 21:54 | 49.20527 | -2.20060 | 286 ft | 10 kts | 106° |
| 2026-05-05 21:55 | 49.20513 | -2.19973 | 286 ft | 6 kts | 94° |
| 2026-05-05 21:55 | 49.20531 | -2.19934 | 286 ft | 3 kts | 20° |
| 2026-05-05 21:55 | 49.20548 | -2.19929 | 286 ft | 5 kts | 4° |
| 2026-05-05 21:55 | 49.20588 | -2.19909 | 286 ft | 7 kts | 52° |
| 2026-05-05 21:56 | 49.20603 | -2.19817 | 286 ft | 11 kts | 82° |
| 2026-05-05 21:56 | 49.20612 | -2.19708 | 286 ft | 6 kts | 88° |
| 2026-05-05 21:56 | 49.20598 | -2.19665 | 286 ft | 3 kts | 147° |
| 2026-05-05 21:56 | 49.20586 | -2.19656 | 286 ft | 3 kts | 154° |
| 2026-05-05 21:57 | 49.20564 | -2.19640 | 286 ft | 2 kts | 157° |
| 2026-05-05 21:57 | 49.20563 | -2.19640 | 286 ft | 0 kts | 157° |